TimeCDT,TemperatureF,Dew PointF,Humidity,Sea Level PressureIn,VisibilityMPH,Wind Direction,Wind SpeedMPH,Gust SpeedMPH,PrecipitationIn,Events,Conditions,WindDirDegrees,DateUTC
12:15 AM,37.4,30.7,77,30.09,10.0,NNE,9.2,-,N/A,,Mostly Cloudy,30,2013-03-17 05:15:00
12:35 AM,36.9,31.1,80,30.10,10.0,ENE,5.8,-,N/A,,Scattered Clouds,60,2013-03-17 05:35:00
12:55 AM,36.5,31.8,83,30.09,10.0,ENE,8.1,-,N/A,,Clear,60,2013-03-17 05:55:00
1:15 AM,36.0,30.9,82,30.10,10.0,NE,10.4,-,N/A,,Clear,40,2013-03-17 06:15:00
1:35 AM,35.6,30.9,83,30.10,10.0,NNE,8.1,-,N/A,,Clear,30,2013-03-17 06:35:00
1:55 AM,35.6,30.4,81,30.10,10.0,NNE,10.4,-,N/A,,Scattered Clouds,30,2013-03-17 06:55:00
2:15 AM,35.2,30.2,82,30.10,10.0,NE,9.2,-,N/A,,Scattered Clouds,40,2013-03-17 07:15:00
2:35 AM,34.9,30.2,83,30.11,10.0,NE,10.4,-,N/A,,Scattered Clouds,40,2013-03-17 07:35:00
2:55 AM,34.7,30.0,83,30.11,10.0,NE,9.2,-,N/A,,Mostly Cloudy,50,2013-03-17 07:55:00
3:15 AM,34.5,29.3,81,30.11,10.0,NE,8.1,-,N/A,,Overcast,50,2013-03-17 08:15:00
3:35 AM,34.3,28.8,80,30.12,10.0,ENE,6.9,-,N/A,,Overcast,60,2013-03-17 08:35:00
3:55 AM,34.0,29.1,82,30.11,10.0,NE,9.2,-,N/A,,Overcast,50,2013-03-17 08:55:00
4:15 AM,34.0,28.2,79,30.13,10.0,NE,6.9,-,N/A,,Overcast,40,2013-03-17 09:15:00
4:35 AM,33.8,28.4,81,30.11,10.0,NE,10.4,-,N/A,,Overcast,40,2013-03-17 09:35:00
4:55 AM,33.8,28.4,81,30.11,10.0,NE,9.2,-,N/A,,Overcast,50,2013-03-17 09:55:00
5:15 AM,33.4,28.2,81,30.10,10.0,NE,11.5,16.1,N/A,,Mostly Cloudy,50,2013-03-17 10:15:00
5:35 AM,33.4,28.4,82,30.11,10.0,NE,11.5,-,N/A,,Mostly Cloudy,50,2013-03-17 10:35:00
5:55 AM,33.3,27.7,80,30.12,10.0,NE,11.5,-,N/A,,Mostly Cloudy,50,2013-03-17 10:55:00
6:15 AM,33.3,27.7,80,30.13,10.0,NE,10.4,-,N/A,,Overcast,50,2013-03-17 11:15:00
6:35 AM,33.1,27.9,81,30.14,10.0,ENE,9.2,-,N/A,,Mostly Cloudy,70,2013-03-17 11:35:00
6:55 AM,33.1,27.3,79,30.13,10.0,ENE,13.8,-,N/A,,Mostly Cloudy,60,2013-03-17 11:55:00
7:15 AM,33.8,26.6,75,30.13,10.0,NE,12.7,-,N/A,,Mostly Cloudy,50,2013-03-17 12:15:00
7:35 AM,33.1,26.8,78,30.13,10.0,ENE,13.8,-,N/A,,Overcast,60,2013-03-17 12:35:00
7:55 AM,33.1,27.1,79,30.14,10.0,NE,9.2,-,N/A,,Overcast,40,2013-03-17 12:55:00
8:15 AM,33.3,27.3,79,30.14,10.0,NE,11.5,-,N/A,,Mostly Cloudy,50,2013-03-17 13:15:00
8:35 AM,33.6,27.1,77,30.13,10.0,NE,13.8,-,N/A,,Scattered Clouds,50,2013-03-17 13:35:00
8:55 AM,33.8,27.1,77,30.14,10.0,ENE,12.7,-,N/A,,Mostly Cloudy,60,2013-03-17 13:55:00
9:15 AM,33.8,28.4,81,30.14,10.0,ENE,15.0,-,N/A,,Overcast,70,2013-03-17 14:15:00
9:35 AM,34.3,28.0,78,30.14,10.0,ENE,12.7,-,N/A,,Overcast,60,2013-03-17 14:35:00
9:55 AM,34.3,28.0,78,30.13,10.0,ENE,12.7,-,N/A,,Overcast,60,2013-03-17 14:55:00
10:15 AM,34.7,28.4,78,30.13,10.0,NE,15.0,-,N/A,,Overcast,50,2013-03-17 15:15:00
10:35 AM,34.9,28.6,78,30.13,10.0,ENE,12.7,-,N/A,,Overcast,70,2013-03-17 15:35:00
10:55 AM,34.9,28.9,79,30.13,10.0,ENE,12.7,-,N/A,,Overcast,70,2013-03-17 15:55:00
11:15 AM,35.6,29.3,78,30.13,10.0,ENE,15.0,-,N/A,,Overcast,70,2013-03-17 16:15:00
11:35 AM,35.6,30.2,81,30.12,10.0,East,13.8,-,N/A,,Overcast,80,2013-03-17 16:35:00
11:55 AM,36.9,29.7,75,30.11,10.0,East,17.3,-,N/A,,Overcast,90,2013-03-17 16:55:00
12:15 PM,37.9,30.2,74,30.10,10.0,East,18.4,23.0,N/A,,Overcast,80,2013-03-17 17:15:00
12:35 PM,39.2,30.2,70,30.09,10.0,East,15.0,19.6,N/A,,Mostly Cloudy,80,2013-03-17 17:35:00
12:55 PM,39.6,29.5,67,30.08,10.0,ENE,13.8,23.0,N/A,,Scattered Clouds,70,2013-03-17 17:55:00
1:15 PM,41.0,30.0,65,30.06,10.0,East,19.6,24.2,N/A,,Scattered Clouds,80,2013-03-17 18:15:00
1:35 PM,41.4,29.3,62,30.05,10.0,ENE,16.1,23.0,N/A,,Clear,70,2013-03-17 18:35:00
1:55 PM,42.3,30.4,63,30.03,10.0,East,18.4,21.9,N/A,,Scattered Clouds,80,2013-03-17 18:55:00
2:15 PM,42.1,29.5,61,30.02,10.0,East,16.1,20.7,N/A,,Clear,80,2013-03-17 19:15:00
2:35 PM,42.3,30.6,63,30.02,10.0,East,15.0,-,N/A,,Scattered Clouds,80,2013-03-17 19:35:00
2:55 PM,41.9,30.0,63,30.02,10.0,ENE,15.0,-,N/A,,Overcast,70,2013-03-17 19:55:00
3:15 PM,41.5,30.2,64,30.01,10.0,East,15.0,20.7,N/A,,Overcast,80,2013-03-17 20:15:00
3:35 PM,41.2,30.4,65,30.00,10.0,East,15.0,-,N/A,,Overcast,80,2013-03-17 20:35:00
3:55 PM,41.0,30.4,66,30.00,10.0,East,11.5,-,N/A,,Overcast,80,2013-03-17 20:55:00
4:15 PM,41.0,30.2,65,29.99,10.0,East,11.5,-,N/A,,Overcast,90,2013-03-17 21:15:00
4:35 PM,41.0,30.9,67,29.98,10.0,East,13.8,-,N/A,,Overcast,90,2013-03-17 21:35:00
4:55 PM,40.6,30.6,67,29.98,10.0,East,13.8,-,N/A,,Overcast,90,2013-03-17 21:55:00
5:15 PM,40.6,31.1,69,29.96,10.0,East,15.0,-,N/A,,Overcast,90,2013-03-17 22:15:00
5:35 PM,40.5,30.9,69,29.96,10.0,East,15.0,-,N/A,,Overcast,80,2013-03-17 22:35:00
5:55 PM,40.6,31.1,69,29.95,10.0,East,15.0,-,N/A,,Overcast,90,2013-03-17 22:55:00
6:15 PM,40.5,31.8,71,29.97,10.0,East,13.8,-,N/A,,Overcast,80,2013-03-17 23:15:00
6:35 PM,40.1,32.0,73,29.95,10.0,East,12.7,-,N/A,Rain,Light Rain,80,2013-03-17 23:35:00
6:55 PM,39.6,32.7,76,29.95,10.0,East,15.0,18.4,N/A,,Light Drizzle,90,2013-03-17 23:55:00
7:15 PM,38.7,32.9,80,29.94,10.0,East,15.0,-,N/A,Rain,Light Rain,90,2013-03-18 00:15:00
7:35 PM,38.1,33.8,84,29.94,10.0,East,12.7,-,N/A,Rain,Light Rain,90,2013-03-18 00:35:00
7:55 PM,37.4,34.0,87,29.93,7.0,East,13.8,-,N/A,Rain,Light Rain,90,2013-03-18 00:55:00
8:15 PM,37.4,34.2,88,29.92,10.0,ENE,13.8,-,N/A,Rain,Light Rain,70,2013-03-18 01:15:00
8:35 PM,37.0,34.7,91,29.92,10.0,East,15.0,-,N/A,,Overcast,80,2013-03-18 01:35:00
8:55 PM,36.7,34.2,91,29.91,5.0,ENE,13.8,-,0.01,Snow,Light Snow,70,2013-03-18 01:55:00
9:15 PM,36.1,33.8,91,29.91,5.0,ENE,11.5,-,N/A,Snow,Light Snow,70,2013-03-18 02:15:00
9:35 PM,35.6,33.8,93,29.90,4.0,ENE,15.0,-,N/A,Snow,Light Snow,70,2013-03-18 02:35:00
9:55 PM,35.6,33.8,93,29.90,5.0,ENE,13.8,-,N/A,Snow,Light Snow,70,2013-03-18 02:55:00
10:15 PM,36.0,34.2,93,29.90,7.0,ENE,12.7,-,N/A,,Light Drizzle,60,2013-03-18 03:15:00
10:35 PM,36.1,34.2,93,29.88,5.0,ENE,15.0,-,N/A,,Light Drizzle,60,2013-03-18 03:35:00
10:55 PM,36.1,34.0,92,29.87,5.0,ENE,17.3,-,N/A,,Light Drizzle,70,2013-03-18 03:55:00
11:15 PM,36.5,34.0,91,29.87,5.0,ENE,16.1,-,N/A,Rain,Light Rain,70,2013-03-18 04:15:00
11:35 PM,36.3,34.2,92,29.86,5.0,East,16.1,-,N/A,,Light Drizzle,80,2013-03-18 04:35:00
11:55 PM,36.5,34.2,91,29.85,4.0,ENE,13.8,-,N/A,,Light Drizzle,70,2013-03-18 04:55:00